createdAt,value
2023-08-30T00:01:03.147Z,72.16
2023-08-30T00:03:29.785Z,72.63
2023-08-30T00:05:56.554Z,72.99
2023-08-30T00:08:23.182Z,72.57
2023-08-30T00:10:50.207Z,73.11
2023-08-30T00:13:16.706Z,73.38
2023-08-30T00:15:43.777Z,73.08
2023-08-30T00:18:10.929Z,73.50
2023-08-30T00:20:37.806Z,73.58
2023-08-30T00:23:05.904Z,73.23
2023-08-30T00:25:32.429Z,73.14
2023-08-30T00:27:58.931Z,73.38
2023-08-30T00:30:25.447Z,73.57
2023-08-30T00:32:51.938Z,73.40
2023-08-30T00:35:18.404Z,73.39
2023-08-30T00:37:44.896Z,73.61
2023-08-30T00:40:11.738Z,74.26
2023-08-30T00:42:38.208Z,74.18
2023-08-30T00:45:05.539Z,74.18
2023-08-30T00:47:32.174Z,74.59
2023-08-30T00:49:58.967Z,74.58
2023-08-30T00:52:25.502Z,74.19
2023-08-30T00:54:52.073Z,74.30
2023-08-30T00:57:18.994Z,73.95
2023-08-30T00:59:45.746Z,73.68
2023-08-30T01:02:12.573Z,73.58
2023-08-30T01:04:39.082Z,73.38
2023-08-30T01:07:05.544Z,73.45
2023-08-30T01:09:32.071Z,73.52
2023-08-30T01:12:05.432Z,73.14
2023-08-30T01:14:57.341Z,73.45
2023-08-30T01:17:24.782Z,73.38
2023-08-30T01:20:09.267Z,72.91
2023-08-30T01:23:03.657Z,73.03
2023-08-30T01:25:39.255Z,72.87
2023-08-30T01:28:08.173Z,72.82
2023-08-30T01:30:38.410Z,73.06
2023-08-30T01:33:05.983Z,73.06
2023-08-30T01:35:36.678Z,73.51
2023-08-30T01:38:04.648Z,73.85
2023-08-30T01:40:36.143Z,73.06
2023-08-30T01:43:04.042Z,73.46
2023-08-30T01:45:31.783Z,73.73
2023-08-30T01:47:58.449Z,73.35
2023-08-30T01:50:26.262Z,73.21
2023-08-30T01:52:53.686Z,73.15
2023-08-30T01:55:22.718Z,73.47
2023-08-30T01:57:50.025Z,72.83
2023-08-30T02:00:16.616Z,72.77
2023-08-30T02:02:43.172Z,72.79
2023-08-30T02:05:11.007Z,72.81
2023-08-30T02:07:52.926Z,72.39
2023-08-30T02:10:42.550Z,72.45
2023-08-30T02:13:12.029Z,72.56
2023-08-30T02:15:41.840Z,72.79
2023-08-30T02:18:10.147Z,72.92
2023-08-30T02:20:37.170Z,73.44
2023-08-30T02:23:11.641Z,73.42
2023-08-30T02:25:41.385Z,73.31
2023-08-30T02:28:08.075Z,73.22
2023-08-30T02:30:34.745Z,73.41
2023-08-30T02:33:01.269Z,73.41
2023-08-30T02:35:27.742Z,73.85
2023-08-30T02:37:54.219Z,73.56
2023-08-30T02:40:20.718Z,73.58
2023-08-30T02:42:47.233Z,73.39
2023-08-30T02:45:13.787Z,73.17
2023-08-30T02:47:40.381Z,73.07
2023-08-30T02:50:07.095Z,73.23
2023-08-30T02:52:33.455Z,73.30
2023-08-30T02:54:59.951Z,73.31
2023-08-30T02:57:27.154Z,73.36
2023-08-30T02:59:53.709Z,73.39
2023-08-30T03:02:20.242Z,73.33
2023-08-30T03:04:46.734Z,73.63
2023-08-30T03:07:13.219Z,73.45
2023-08-30T03:09:40.264Z,73.43
2023-08-30T03:12:07.525Z,73.58
2023-08-30T03:14:34.054Z,73.68
2023-08-30T03:17:00.555Z,73.66
2023-08-30T03:19:27.062Z,73.40
2023-08-30T03:21:53.533Z,73.45
2023-08-30T03:24:20.097Z,73.21
2023-08-30T03:26:46.587Z,73.33
2023-08-30T03:29:13.060Z,73.48
2023-08-30T03:31:39.610Z,73.55
2023-08-30T03:34:06.169Z,73.57
2023-08-30T03:36:32.667Z,73.21
2023-08-30T03:38:59.150Z,73.49
2023-08-30T03:41:25.617Z,73.42
2023-08-30T03:43:52.195Z,73.68
2023-08-30T03:46:19.014Z,73.90
2023-08-30T03:48:45.560Z,74.00
2023-08-30T03:51:12.112Z,73.99
2023-08-30T03:53:38.588Z,74.10
2023-08-30T03:56:05.290Z,73.33
2023-08-30T03:58:32.513Z,73.51
2023-08-30T04:00:59.052Z,73.32
2023-08-30T04:03:25.694Z,73.33
2023-08-30T04:05:57.260Z,73.03
2023-08-30T04:08:24.102Z,73.03
2023-08-30T04:10:52.973Z,72.85
2023-08-30T04:13:19.498Z,72.44
2023-08-30T04:15:45.994Z,72.36
2023-08-30T04:18:12.822Z,72.73
2023-08-30T04:20:47.492Z,73.45
2023-08-30T04:23:14.423Z,72.69
2023-08-30T04:25:41.858Z,72.98
2023-08-30T04:28:08.679Z,72.78
2023-08-30T04:30:38.269Z,72.58
2023-08-30T04:33:06.401Z,72.61
2023-08-30T04:35:33.530Z,72.41
2023-08-30T04:38:00.849Z,72.37
2023-08-30T04:40:30.399Z,72.61
2023-08-30T04:42:57.452Z,72.85
2023-08-30T04:45:24.017Z,73.17
2023-08-30T04:47:50.564Z,72.33
2023-08-30T04:50:18.185Z,72.28
2023-08-30T04:52:44.796Z,72.65
2023-08-30T04:55:11.464Z,72.44
2023-08-30T04:57:38.198Z,73.01
2023-08-30T05:00:06.177Z,72.38
2023-08-30T05:02:33.120Z,72.36
2023-08-30T05:04:59.724Z,71.94
2023-08-30T05:07:26.254Z,72.09
2023-08-30T05:09:53.037Z,72.46
2023-08-30T05:12:19.473Z,72.15
2023-08-30T05:14:46.055Z,71.91
2023-08-30T05:17:12.622Z,71.53
2023-08-30T05:19:39.132Z,71.55
2023-08-30T05:22:05.670Z,71.80
2023-08-30T05:24:32.165Z,71.82
2023-08-30T05:26:58.688Z,71.51
2023-08-30T05:29:25.195Z,71.13
2023-08-30T05:31:51.728Z,71.64
2023-08-30T05:34:18.225Z,72.18
2023-08-30T05:36:44.716Z,71.53
2023-08-30T05:39:11.207Z,71.31
2023-08-30T05:41:37.780Z,70.60
2023-08-30T05:44:04.750Z,71.17
2023-08-30T05:46:31.267Z,70.63
2023-08-30T05:48:57.828Z,70.65
2023-08-30T05:51:24.326Z,71.08
2023-08-30T05:53:50.848Z,70.77
2023-08-30T05:56:18.253Z,71.07
2023-08-30T05:58:44.882Z,70.52
2023-08-30T06:01:11.447Z,70.33
2023-08-30T06:03:37.930Z,70.49
2023-08-30T06:06:04.710Z,70.23
2023-08-30T06:08:31.213Z,70.61
2023-08-30T06:10:57.839Z,70.30
2023-08-30T06:13:25.009Z,70.70
2023-08-30T06:15:54.734Z,70.53
2023-08-30T06:18:21.321Z,70.28
2023-08-30T06:20:49.037Z,69.65
2023-08-30T06:23:16.638Z,70.42
2023-08-30T06:25:43.258Z,70.02
2023-08-30T06:28:10.147Z,70.11
2023-08-30T06:30:37.083Z,69.78
2023-08-30T06:33:03.611Z,69.78
2023-08-30T06:35:30.260Z,69.32
2023-08-30T06:37:56.895Z,69.45
2023-08-30T06:40:23.338Z,69.33
2023-08-30T06:42:49.924Z,69.69
2023-08-30T06:45:17.567Z,69.68
2023-08-30T06:47:44.221Z,69.41
2023-08-30T06:50:11.073Z,68.62
2023-08-30T06:52:37.913Z,68.56
2023-08-30T06:55:04.987Z,68.18
2023-08-30T06:57:31.505Z,68.39
2023-08-30T06:59:59.371Z,68.84
2023-08-30T07:02:27.019Z,68.32
2023-08-30T07:04:53.545Z,67.97
2023-08-30T07:07:20.164Z,67.63
2023-08-30T07:09:46.769Z,67.18
2023-08-30T07:12:13.222Z,67.76
2023-08-30T07:14:39.958Z,67.09
2023-08-30T07:17:06.535Z,66.67
2023-08-30T07:19:33.088Z,66.28
2023-08-30T07:21:59.627Z,66.86
2023-08-30T07:24:26.118Z,66.83
2023-08-30T07:26:52.644Z,66.54
2023-08-30T07:29:19.149Z,67.34
2023-08-30T07:31:45.736Z,67.40
2023-08-30T07:34:12.774Z,66.73
2023-08-30T07:36:47.155Z,66.07
2023-08-30T07:39:15.657Z,66.14
2023-08-30T07:41:42.608Z,65.77
2023-08-30T07:44:09.237Z,65.42
2023-08-30T07:46:35.724Z,65.09
2023-08-30T07:49:02.288Z,65.01
2023-08-30T07:51:28.785Z,65.46
2023-08-30T07:53:55.335Z,65.29
2023-08-30T07:56:21.882Z,65.53
2023-08-30T07:58:48.383Z,65.27
2023-08-30T08:01:14.956Z,65.05
2023-08-30T08:03:55.784Z,65.54
2023-08-30T08:06:27.320Z,65.72
2023-08-30T08:08:53.896Z,65.69
2023-08-30T08:11:20.512Z,65.45
2023-08-30T08:13:47.092Z,65.58
2023-08-30T08:16:13.761Z,65.69
2023-08-30T08:18:40.202Z,65.43
2023-08-30T08:21:06.704Z,65.55
2023-08-30T08:23:33.206Z,65.09
2023-08-30T08:26:00.988Z,64.89
2023-08-30T08:28:27.814Z,65.41
2023-08-30T08:30:54.236Z,65.01
2023-08-30T08:33:24.174Z,64.98
2023-08-30T08:35:51.531Z,65.55
2023-08-30T08:38:18.581Z,65.99
2023-08-30T08:40:45.315Z,66.00
2023-08-30T08:43:13.473Z,65.46
2023-08-30T08:45:40.786Z,64.93
2023-08-30T08:48:08.841Z,64.92
2023-08-30T08:50:35.840Z,64.86
2023-08-30T08:53:03.828Z,64.83
2023-08-30T08:55:33.880Z,64.56
2023-08-30T08:58:00.983Z,64.41
2023-08-30T09:00:28.284Z,64.45
2023-08-30T09:02:55.519Z,63.71
2023-08-30T09:05:23.491Z,63.71
2023-08-30T09:07:54.396Z,63.75
2023-08-30T09:10:22.780Z,64.00
2023-08-30T09:12:49.572Z,63.30
2023-08-30T09:15:16.596Z,63.60
2023-08-30T09:17:44.304Z,63.81
2023-08-30T09:20:12.929Z,64.05
2023-08-30T09:22:40.886Z,63.41
2023-08-30T09:25:11.485Z,63.21
2023-08-30T09:27:43.142Z,62.29
2023-08-30T09:30:12.042Z,63.39
2023-08-30T09:32:43.162Z,63.81
2023-08-30T09:35:10.843Z,63.10
2023-08-30T09:37:37.494Z,62.63
2023-08-30T09:40:04.273Z,62.62
2023-08-30T09:42:30.861Z,62.48
2023-08-30T09:44:57.957Z,62.38
2023-08-30T09:47:28.439Z,62.09
2023-08-30T09:49:56.701Z,62.01
2023-08-30T09:52:26.572Z,62.57
2023-08-30T09:54:53.678Z,62.31
2023-08-30T09:57:22.632Z,62.42
2023-08-30T09:59:49.746Z,62.17
2023-08-30T10:02:16.800Z,61.87
2023-08-30T10:04:45.289Z,62.01
2023-08-30T10:07:12.626Z,62.12
2023-08-30T10:09:46.172Z,62.98
2023-08-30T10:12:23.087Z,62.61
2023-08-30T10:14:49.633Z,62.51
2023-08-30T10:17:19.535Z,62.13
2023-08-30T10:19:47.628Z,62.12
2023-08-30T10:22:18.198Z,62.14
2023-08-30T10:25:11.579Z,62.84
2023-08-30T10:27:44.464Z,62.84
2023-08-30T10:30:13.675Z,63.22
2023-08-30T10:32:42.036Z,63.15
2023-08-30T10:35:13.434Z,62.73
2023-08-30T10:37:40.530Z,63.08
2023-08-30T10:40:08.250Z,62.85
2023-08-30T10:42:35.615Z,63.17
2023-08-30T10:47:40.321Z,63.01
2023-08-30T10:50:12.053Z,62.67
2023-08-30T10:52:39.258Z,62.74
2023-08-30T10:55:07.003Z,62.06
2023-08-30T10:57:34.660Z,61.88
2023-08-30T11:00:12.215Z,61.62
2023-08-30T11:02:39.356Z,61.79
2023-08-30T11:05:10.028Z,61.39
2023-08-30T11:07:37.100Z,62.50
2023-08-30T11:10:10.261Z,61.59
2023-08-30T11:12:37.057Z,61.71
2023-08-30T11:15:04.072Z,61.54
2023-08-30T11:17:30.942Z,60.20
2023-08-30T11:20:08.854Z,59.44
2023-08-30T11:22:40.432Z,59.91
2023-08-30T11:25:09.372Z,61.38
2023-08-30T11:27:35.919Z,59.95
2023-08-30T11:30:04.402Z,59.55
2023-08-30T11:32:36.936Z,60.89
2023-08-30T11:35:04.291Z,60.07
2023-08-30T11:37:31.533Z,60.40
2023-08-30T11:39:59.075Z,59.68
2023-08-30T11:42:26.501Z,59.70
2023-08-30T11:44:53.382Z,60.36
2023-08-30T11:47:27.288Z,59.97
2023-08-30T11:49:55.829Z,60.16
2023-08-30T11:52:24.192Z,59.46
2023-08-30T11:54:51.486Z,59.20
2023-08-30T11:57:18.008Z,59.41
2023-08-30T11:59:44.752Z,59.39
2023-08-30T12:02:14.766Z,59.46
2023-08-30T12:04:46.696Z,59.11
2023-08-30T12:07:24.335Z,59.39
2023-08-30T12:09:51.344Z,59.84
2023-08-30T12:12:18.004Z,59.79
2023-08-30T12:14:44.459Z,59.68
2023-08-30T12:17:13.558Z,60.05
2023-08-30T12:19:43.696Z,60.24
2023-08-30T12:22:10.184Z,59.79
2023-08-30T12:24:43.730Z,60.29
2023-08-30T12:27:10.345Z,60.40
2023-08-30T12:29:37.274Z,59.58
2023-08-30T12:32:04.077Z,60.55
2023-08-30T12:34:30.650Z,59.77
2023-08-30T12:36:57.061Z,60.55
2023-08-30T12:39:23.545Z,60.26
2023-08-30T12:41:50.121Z,60.06
2023-08-30T12:44:16.951Z,59.95
2023-08-30T12:46:43.457Z,60.02
2023-08-30T12:49:10.066Z,59.28
2023-08-30T12:51:36.506Z,59.64
2023-08-30T12:54:03.048Z,59.78
2023-08-30T12:56:29.501Z,59.52
2023-08-30T12:58:55.941Z,59.28
2023-08-30T13:01:22.486Z,59.38
2023-08-30T13:03:48.859Z,59.77
2023-08-30T13:06:15.299Z,60.14
2023-08-30T13:08:41.765Z,59.80
2023-08-30T13:11:08.283Z,60.22
2023-08-30T13:13:34.866Z,58.52
2023-08-30T13:16:01.316Z,59.33
2023-08-30T13:18:27.859Z,59.71
2023-08-30T13:20:57.344Z,58.68
2023-08-30T13:23:23.951Z,57.85
2023-08-30T13:25:50.542Z,58.81
2023-08-30T13:28:16.967Z,57.76
2023-08-30T13:30:46.880Z,58.20
2023-08-30T13:33:14.250Z,58.82
2023-08-30T13:35:41.108Z,58.66
2023-08-30T13:38:07.608Z,58.82
2023-08-30T13:40:34.107Z,58.79
2023-08-30T13:43:00.591Z,58.86
2023-08-30T13:45:27.097Z,58.55
2023-08-30T13:47:56.088Z,58.14
2023-08-30T13:50:22.694Z,57.75
2023-08-30T13:52:49.260Z,58.08
2023-08-30T13:55:15.760Z,57.79
2023-08-30T13:57:42.273Z,58.01
2023-08-30T14:00:11.110Z,58.26
2023-08-30T14:02:37.727Z,58.50
2023-08-30T14:05:04.494Z,57.66
2023-08-30T14:07:31.428Z,57.49
2023-08-30T14:09:58.934Z,58.36
2023-08-30T14:12:25.484Z,58.04
2023-08-30T14:14:53.046Z,57.17
2023-08-30T14:17:21.134Z,57.18
2023-08-30T14:19:47.826Z,57.49
2023-08-30T14:22:14.495Z,57.45
2023-08-30T14:24:57.472Z,57.49
2023-08-30T14:27:27.941Z,57.84
2023-08-30T14:29:54.514Z,58.17
2023-08-30T14:32:20.901Z,58.61
2023-08-30T14:34:47.397Z,58.69
2023-08-30T14:37:13.871Z,58.74
2023-08-30T14:39:40.399Z,59.00
2023-08-30T14:42:06.994Z,58.16
2023-08-30T14:44:33.489Z,58.37
2023-08-30T14:47:00.022Z,58.25
2023-08-30T14:49:26.559Z,58.30
2023-08-30T14:51:53.077Z,58.47
2023-08-30T14:54:19.890Z,58.64
2023-08-30T14:56:46.486Z,58.41
2023-08-30T14:59:13.389Z,58.87
2023-08-30T15:01:40.480Z,59.14
2023-08-30T15:04:07.192Z,59.08
2023-08-30T15:06:33.715Z,59.12
2023-08-30T15:09:00.206Z,59.05
2023-08-30T15:11:26.704Z,58.82
2023-08-30T15:13:53.214Z,58.89
2023-08-30T15:16:19.709Z,58.81
2023-08-30T15:18:46.216Z,59.26
2023-08-30T15:21:14.576Z,58.74
2023-08-30T15:23:41.166Z,58.58
2023-08-30T15:26:07.768Z,58.55
2023-08-30T15:28:34.723Z,59.01
2023-08-30T15:31:01.245Z,58.44
2023-08-30T15:33:27.949Z,58.62
2023-08-30T15:35:58.653Z,58.43
2023-08-30T15:38:25.200Z,58.47
2023-08-30T15:40:54.761Z,58.17
2023-08-30T15:43:21.314Z,58.92
2023-08-30T15:45:48.498Z,58.43
2023-08-30T15:48:15.107Z,58.56
2023-08-30T15:50:42.679Z,59.07
2023-08-30T15:53:10.608Z,59.08
2023-08-30T15:55:37.152Z,59.03
2023-08-30T15:58:03.739Z,59.35
2023-08-30T16:00:30.283Z,59.28
2023-08-30T16:02:59.133Z,59.34
2023-08-30T16:05:25.844Z,59.07
2023-08-30T16:07:52.518Z,59.32
2023-08-30T16:10:19.204Z,59.20
2023-08-30T16:12:45.647Z,58.99
2023-08-30T16:15:12.258Z,58.82
2023-08-30T16:17:38.747Z,59.55
2023-08-30T16:20:06.417Z,58.98
2023-08-30T16:22:34.767Z,59.01
2023-08-30T16:25:01.413Z,58.89
2023-08-30T16:27:27.875Z,58.47
2023-08-30T16:29:54.384Z,58.63
2023-08-30T16:32:21.045Z,58.72
2023-08-30T16:34:50.528Z,59.05
2023-08-30T16:37:17.452Z,59.31
2023-08-30T16:39:43.876Z,59.43
2023-08-30T16:42:10.389Z,59.74
2023-08-30T16:44:37.930Z,59.08
2023-08-30T16:47:04.652Z,59.55
2023-08-30T16:49:31.306Z,59.40
2023-08-30T16:51:57.716Z,59.84
2023-08-30T16:54:24.353Z,60.53
2023-08-30T16:56:51.211Z,61.74
2023-08-30T16:59:17.770Z,60.88
2023-08-30T17:01:44.218Z,60.49
2023-08-30T17:04:11.516Z,59.76
2023-08-30T17:06:37.995Z,59.91
2023-08-30T17:09:05.454Z,59.88
2023-08-30T17:11:33.990Z,58.77
2023-08-30T17:14:01.049Z,59.08
2023-08-30T17:16:27.630Z,59.41
2023-08-30T17:18:54.185Z,59.39
2023-08-30T17:21:20.812Z,59.57
2023-08-30T17:23:47.358Z,60.00
2023-08-30T17:26:13.816Z,59.57
2023-08-30T17:28:40.421Z,60.33
2023-08-30T17:31:07.554Z,60.79
2023-08-30T17:33:34.766Z,60.33
2023-08-30T17:36:04.908Z,60.18
2023-08-30T17:38:34.884Z,60.00
2023-08-30T17:41:01.436Z,60.37
2023-08-30T17:43:27.998Z,60.22
2023-08-30T17:45:54.944Z,60.51
2023-08-30T17:48:21.446Z,60.47
2023-08-30T17:50:47.977Z,60.01
2023-08-30T17:53:14.642Z,60.08
2023-08-30T17:55:42.405Z,60.57
2023-08-30T17:58:09.551Z,60.80
2023-08-30T18:00:36.277Z,60.68
2023-08-30T18:03:04.895Z,60.83
2023-08-30T18:05:32.018Z,60.90
2023-08-30T18:07:58.574Z,60.94
2023-08-30T18:10:25.631Z,60.94
2023-08-30T18:12:52.361Z,61.64
2023-08-30T18:15:18.797Z,61.68
2023-08-30T18:17:45.524Z,62.02
2023-08-30T18:20:15.459Z,62.55
2023-08-30T18:22:43.174Z,62.19
2023-08-30T18:25:10.436Z,63.17
2023-08-30T18:27:37.598Z,63.21
2023-08-30T18:30:05.765Z,63.31
2023-08-30T18:32:33.423Z,63.01
2023-08-30T18:35:00.048Z,63.04
2023-08-30T18:37:26.559Z,63.18
2023-08-30T18:39:53.593Z,63.32
2023-08-30T18:42:20.059Z,63.47
2023-08-30T18:44:47.852Z,63.60
2023-08-30T18:47:18.720Z,63.95
2023-08-30T18:49:45.279Z,64.24
2023-08-30T18:52:11.923Z,64.23
2023-08-30T18:54:44.704Z,64.48
2023-08-30T18:57:12.648Z,64.81
2023-08-30T18:59:40.244Z,65.00
2023-08-30T19:02:07.520Z,64.93
2023-08-30T19:04:34.559Z,64.80
2023-08-30T19:07:01.251Z,65.02
2023-08-30T19:09:28.752Z,64.74
2023-08-30T19:11:55.260Z,64.87
2023-08-30T19:14:21.903Z,64.76
2023-08-30T19:16:48.437Z,64.61
2023-08-30T19:19:14.995Z,64.94
2023-08-30T19:21:41.982Z,65.10
2023-08-30T19:24:10.053Z,65.31
2023-08-30T19:26:36.609Z,65.05
2023-08-30T19:29:03.188Z,65.21
2023-08-30T19:31:33.685Z,65.25
2023-08-30T19:34:00.256Z,65.48
2023-08-30T19:36:28.496Z,65.95
2023-08-30T19:38:56.558Z,66.32
2023-08-30T19:41:26.660Z,66.64
2023-08-30T19:43:55.607Z,66.79
2023-08-30T19:46:24.452Z,66.45
2023-08-30T19:48:51.278Z,66.47
2023-08-30T19:51:18.077Z,66.59
2023-08-30T19:53:44.695Z,67.02
2023-08-30T19:56:11.272Z,67.93
2023-08-30T19:58:37.826Z,68.30
2023-08-30T20:01:06.692Z,68.46
2023-08-30T20:03:34.669Z,68.06
2023-08-30T20:06:02.297Z,67.65
2023-08-30T20:08:28.821Z,67.26
2023-08-30T20:11:01.887Z,67.89
2023-08-30T20:13:28.345Z,67.76
2023-08-30T20:16:02.132Z,67.84
2023-08-30T20:18:29.521Z,68.19
2023-08-30T20:20:56.952Z,68.52
2023-08-30T20:23:23.985Z,68.74
2023-08-30T20:25:51.239Z,68.93
2023-08-30T20:28:19.005Z,68.52
2023-08-30T20:30:49.903Z,68.23
2023-08-30T20:33:16.933Z,68.34
2023-08-30T20:35:44.279Z,68.53
2023-08-30T20:38:13.964Z,68.79
2023-08-30T20:40:44.749Z,68.38
2023-08-30T20:43:11.659Z,68.21
2023-08-30T20:45:38.703Z,68.15
2023-08-30T20:48:05.836Z,67.86
2023-08-30T20:50:33.818Z,68.24
2023-08-30T20:53:00.954Z,68.13
2023-08-30T20:55:39.307Z,67.67
2023-08-30T20:58:06.937Z,68.54
2023-08-30T21:00:34.124Z,69.13
2023-08-30T21:03:04.467Z,68.88
2023-08-30T21:05:32.012Z,68.56
2023-08-30T21:07:58.601Z,68.37
2023-08-30T21:10:25.621Z,68.39
2023-08-30T21:13:04.760Z,68.71
2023-08-30T21:15:32.604Z,69.16
2023-08-30T21:17:59.126Z,69.57
2023-08-30T21:20:25.721Z,69.06
2023-08-30T21:22:52.221Z,68.71
2023-08-30T21:25:18.835Z,68.68
2023-08-30T21:27:45.368Z,68.95
2023-08-30T21:30:12.311Z,69.14
2023-08-30T21:32:39.461Z,68.93
2023-08-30T21:35:08.041Z,68.69
2023-08-30T21:37:34.645Z,69.03
2023-08-30T21:40:01.338Z,69.53
2023-08-30T21:42:27.911Z,70.30
2023-08-30T21:44:54.420Z,70.64
2023-08-30T21:47:20.887Z,69.75
2023-08-30T21:49:47.370Z,69.04
2023-08-30T21:52:13.890Z,69.00
2023-08-30T21:54:41.942Z,70.86
2023-08-30T21:57:08.387Z,71.36
2023-08-30T21:59:35.106Z,71.46
2023-08-30T22:02:02.168Z,70.73
2023-08-30T22:04:28.914Z,69.95
2023-08-30T22:06:55.397Z,69.59
2023-08-30T22:09:22.164Z,69.63
2023-08-30T22:11:49.192Z,69.23
2023-08-30T22:14:15.738Z,69.23
2023-08-30T22:16:43.016Z,69.73
2023-08-30T22:19:09.676Z,69.85
2023-08-30T22:21:36.159Z,69.92
2023-08-30T22:24:03.365Z,69.82
2023-08-30T22:26:30.202Z,70.18
2023-08-30T22:28:56.671Z,70.52
2023-08-30T22:31:24.721Z,70.21
2023-08-30T22:33:52.256Z,69.80
2023-08-30T22:36:18.936Z,69.83
2023-08-30T22:38:45.778Z,69.63
2023-08-30T22:41:12.215Z,69.88
2023-08-30T22:43:39.130Z,70.15
2023-08-30T22:46:05.684Z,70.82
2023-08-30T22:48:32.228Z,70.76
2023-08-30T22:51:04.586Z,71.46
2023-08-30T22:53:34.308Z,71.40
2023-08-30T22:56:02.232Z,71.86
2023-08-30T22:58:28.766Z,72.00
2023-08-30T23:00:55.478Z,72.51
2023-08-30T23:03:21.978Z,72.06
2023-08-30T23:05:48.744Z,71.68
2023-08-30T23:08:15.149Z,71.22
2023-08-30T23:10:43.979Z,71.26
2023-08-30T23:13:10.765Z,70.46
2023-08-30T23:15:37.421Z,70.12
2023-08-30T23:18:04.499Z,70.93
2023-08-30T23:20:33.408Z,71.38
2023-08-30T23:23:00.036Z,71.78
2023-08-30T23:25:26.616Z,71.25
2023-08-30T23:27:53.215Z,70.44
2023-08-30T23:30:19.805Z,70.65
2023-08-30T23:32:46.346Z,71.15
2023-08-30T23:35:12.959Z,70.79
2023-08-30T23:37:39.476Z,70.23
2023-08-30T23:40:10.884Z,70.39
2023-08-30T23:42:37.890Z,70.28
2023-08-30T23:45:06.260Z,70.36
2023-08-30T23:47:33.583Z,70.30
2023-08-30T23:50:00.104Z,70.08
2023-08-30T23:52:27.136Z,70.48
2023-08-30T23:54:53.691Z,70.90
2023-08-30T23:57:20.194Z,71.43
2023-08-30T23:59:46.815Z,71.44
